Ruskin, NE (68974)

03:00 PM CST die 21o February, anno 2018 (GMT -0600)
288 W 4th | | Change Station
Active Advisory: Winter Weather Advisory

Elev 1755 ft 40.20 °N, 98.07 °W | Updated 5 seconds ago

Serena
Serena
30.5 °F
Feels Like 30 °F
N
0.0
Ventus Variabilis Ventus from Magis Aquilo quam Eurus

Hodie
High -- | Low -- °F
--% Chance of Precip.
Yesterday
High -- | Low -- °F
Precip. -- in
Pressio 30.49 in
Visibilitas 10.0 milia passuum
Clouds Serena
Frigus Venti 30 °F
Frigus in quo Ros apparet 6 °F
Umor 35%
Rainfall 0.00 in
Snow Depth Not available.
7:16 AM 6:14 PM
Waxing Crescent, 34% visible
METAR KHJH 212055Z AUTO 06007KT 10SM CLR M02/M16 A3049 RMK AO2 T10181158
Pressio 30.49 in
Visibilitas 10.0 milia passuum
Clouds Serena
Frigus Venti 30 °F
Frigus in quo Ros apparet 6 °F
Umor 35%
Rainfall 0.00 in
Snow Depth Not available.
7:16 AM 6:14 PM
Waxing Crescent, 34% visible
METAR KHJH 212055Z AUTO 06007KT 10SM CLR M02/M16 A3049 RMK AO2 T10181158

Get Your Daily Forecast Email!

Thanks for signing up!

Be on the lookout for a verification email in your inbox.

You'll start receiving severe weather alerts in your inbox..

×

10-Day Weather Forecast

Almanac

Astronomy

Feb. 21, 2018 Rise Set
Actual Time
Civil Twilight
Nautical Twilight
Astronomical Twilight
Moon
Length Of Visible Light
Length of Day
Tomorrow will be .
, % of the Moon is Illuminated

Today's Extremes

State Highs State Lows

Community

WunderPhotos

Category 6

Welcome to Category 6. This is the collective home for Weather Underground's featured writeups by Dr. Jeff Masters (right), Bob Henson (left), Chris Burt, and other regular contributors.

Nearby

Air Quality

  Air Quality AQ Index Pollutant
Not available.

Snow Depth

Station Depth Elevation

Earthquake Activity

City Distance Mag. Time & Date
Minimum magnitude displayed is 2.5.

Coastal Water Temperatures

Locus Calor

Stations

Nearby Weather Stations

Station Location Temp Frigus Venti Frigus in quo Ros apparet Umor Ventus Precip. Elev Renovata Type
                   

Watches & Warnings

Winter Weather Advisory
Issued: 2:51 PM CST Feb. 21, 2018 – National Weather Service

... Winter Weather Advisory in effect from 3 am to 6 PM CST
Thursday...

* what... mixed precipitation expected. Total snow accumulations up
to one inch and total ice accumulations up to one tenth of an
inch are expected.

* Where... portions of central, east central and south central
Nebraska.

* When... from 3 am to 6 PM CST Thursday.

* Additional details... plan on slippery Road conditions,
including during the evening commute on Thursday. Be prepared
for reduced visibilities at times.

Precautionary/preparedness actions...

A Winter Weather Advisory means that periods of snow, sleet or
freezing rain will cause travel difficulties. Be prepared for
slippery roads and limited visibilities, and use caution while
driving. The latest Road conditions for the state you are calling
from can be obtained by calling 5 1 1.



Rossi